Albany, Ohio
Current Conditions -  °F | °C
As of 11:35 PM on Tuesday 21 Oct 2014 (Local Time) from KUNI Reporting Station
Overcast Overcast  
Wind Chill: 42°   Ceiling: 5000
Heat Index: 46°   Visibility: 10mi
Dew Point: 40°   Wind: 7mph
Humidity: 79%   Direction: 320°NW
Pressure: 30.12"   Gusts: NA
Location:  39.23°N, 82.2°W
Report Text: KUNI 220335Z AUTO 32006KT 10SM SCT026 OVC050 08/04 A3012 RMK AO2 T00780043
Loading
Personal Weather Stations






























Interactive Weather Map New forecast layout! Learn more

10-Day Weather Forecast

Advertisements
Track Severe Weather on mobile